sensor_id;sensor_type;location;lat;lon;timestamp;pressure;altitude;pressure_sealevel;temperature;humidity
77723;BME280;67811;42.656;23.394;2023-07-09T00:01:05;95446.13;;;19.49;50.47
77723;BME280;67811;42.656;23.394;2023-07-09T00:03:31;95441.69;;;19.55;52.39
77723;BME280;67811;42.656;23.394;2023-07-09T00:05:56;95441.25;;;19.58;50.06
77723;BME280;67811;42.656;23.394;2023-07-09T00:08:26;95445.34;;;19.72;51.10
77723;BME280;67811;42.656;23.394;2023-07-09T00:10:53;95436.34;;;19.66;51.03
77723;BME280;67811;42.656;23.394;2023-07-09T00:13:20;95437.53;;;19.59;50.45
77723;BME280;67811;42.656;23.394;2023-07-09T00:15:46;95436.94;;;19.68;49.93
77723;BME280;67811;42.656;23.394;2023-07-09T00:18:11;95437.19;;;19.79;49.94
77723;BME280;67811;42.656;23.394;2023-07-09T00:20:36;95436.69;;;19.58;49.65
77723;BME280;67811;42.656;23.394;2023-07-09T00:23:01;95429.88;;;19.56;50.51
77723;BME280;67811;42.656;23.394;2023-07-09T00:25:27;95431.75;;;19.55;50.08
77723;BME280;67811;42.656;23.394;2023-07-09T00:27:52;95432.47;;;19.51;51.03
77723;BME280;67811;42.656;23.394;2023-07-09T00:30:20;95432.47;;;19.51;51.08
77723;BME280;67811;42.656;23.394;2023-07-09T00:32:45;95430.28;;;19.59;51.59
77723;BME280;67811;42.656;23.394;2023-07-09T00:35:11;95421.81;;;19.56;50.60
77723;BME280;67811;42.656;23.394;2023-07-09T00:37:37;95421.59;;;19.45;50.88
77723;BME280;67811;42.656;23.394;2023-07-09T00:40:03;95423.34;;;19.40;50.79
77723;BME280;67811;42.656;23.394;2023-07-09T00:42:28;95423.56;;;19.50;51.01
77723;BME280;67811;42.656;23.394;2023-07-09T00:44:54;95422.03;;;19.42;50.51
77723;BME280;67811;42.656;23.394;2023-07-09T00:50:09;95417.97;;;19.52;50.68
77723;BME280;67811;42.656;23.394;2023-07-09T00:52:39;95422.63;;;19.44;51.85
77723;BME280;67811;42.656;23.394;2023-07-09T00:55:10;95426.78;;;19.59;54.24
77723;BME280;67811;42.656;23.394;2023-07-09T00:57:38;95416.59;;;19.61;54.71
77723;BME280;67811;42.656;23.394;2023-07-09T01:00:08;95416.00;;;19.82;51.54
77723;BME280;67811;42.656;23.394;2023-07-09T01:02:34;95418.38;;;19.90;53.17
77723;BME280;67811;42.656;23.394;2023-07-09T01:05:01;95414.97;;;19.83;50.36
77723;BME280;67811;42.656;23.394;2023-07-09T01:07:28;95426.56;;;19.95;52.07
77723;BME280;67811;42.656;23.394;2023-07-09T01:09:53;95415.69;;;19.90;52.06
77723;BME280;67811;42.656;23.394;2023-07-09T01:12:20;95418.59;;;20.00;50.55
77723;BME280;67811;42.656;23.394;2023-07-09T01:14:45;95410.53;;;19.89;49.84
77723;BME280;67811;42.656;23.394;2023-07-09T01:17:11;95420.81;;;19.68;49.88
77723;BME280;67811;42.656;23.394;2023-07-09T01:19:40;95414.16;;;19.71;51.42
77723;BME280;67811;42.656;23.394;2023-07-09T01:22:06;95410.84;;;20.04;53.75
77723;BME280;67811;42.656;23.394;2023-07-09T01:27:33;95410.09;;;20.56;52.68
77723;BME280;67811;42.656;23.394;2023-07-09T01:30:00;95413.03;;;20.83;52.06
77723;BME280;67811;42.656;23.394;2023-07-09T01:32:26;95413.41;;;21.03;49.09
77723;BME280;67811;42.656;23.394;2023-07-09T01:34:54;95405.38;;;20.91;50.59
77723;BME280;67811;42.656;23.394;2023-07-09T01:37:24;95406.91;;;20.59;50.94
77723;BME280;67811;42.656;23.394;2023-07-09T01:39:51;95414.47;;;19.51;55.18
77723;BME280;67811;42.656;23.394;2023-07-09T01:42:18;95417.09;;;19.28;57.04
77723;BME280;67811;42.656;23.394;2023-07-09T01:44:44;95419.88;;;19.09;57.98
77723;BME280;67811;42.656;23.394;2023-07-09T01:47:10;95425.63;;;18.83;59.01
77723;BME280;67811;42.656;23.394;2023-07-09T01:49:35;95426.44;;;18.65;59.60
77723;BME280;67811;42.656;23.394;2023-07-09T01:52:01;95429.66;;;18.55;62.23
77723;BME280;67811;42.656;23.394;2023-07-09T01:54:29;95441.78;;;18.94;61.32
77723;BME280;67811;42.656;23.394;2023-07-09T01:57:11;95433.72;;;19.36;61.11
77723;BME280;67811;42.656;23.394;2023-07-09T01:59:37;95440.81;;;19.84;59.21
77723;BME280;67811;42.656;23.394;2023-07-09T02:02:02;95434.72;;;20.24;58.39
77723;BME280;67811;42.656;23.394;2023-07-09T02:04:27;95432.09;;;20.41;56.68
77723;BME280;67811;42.656;23.394;2023-07-09T02:06:53;95431.63;;;20.56;56.83
77723;BME280;67811;42.656;23.394;2023-07-09T02:09:18;95437.38;;;20.47;55.12
77723;BME280;67811;42.656;23.394;2023-07-09T02:11:43;95434.66;;;20.59;57.08
77723;BME280;67811;42.656;23.394;2023-07-09T02:14:08;95438.78;;;20.26;55.71
77723;BME280;67811;42.656;23.394;2023-07-09T02:16:34;95436.41;;;20.42;57.12
77723;BME280;67811;42.656;23.394;2023-07-09T02:18:59;95445.19;;;20.37;57.87
77723;BME280;67811;42.656;23.394;2023-07-09T02:21:24;95433.38;;;20.62;56.48
77723;BME280;67811;42.656;23.394;2023-07-09T02:23:49;95437.84;;;20.44;56.49
77723;BME280;67811;42.656;23.394;2023-07-09T02:26:15;95444.25;;;20.43;57.63
77723;BME280;67811;42.656;23.394;2023-07-09T02:28:40;95441.22;;;20.51;54.74
77723;BME280;67811;42.656;23.394;2023-07-09T02:31:05;95450.63;;;18.47;60.55
77723;BME280;67811;42.656;23.394;2023-07-09T02:33:30;95460.91;;;18.13;62.90
77723;BME280;67811;42.656;23.394;2023-07-09T02:35:56;95460.00;;;18.01;63.29
77723;BME280;67811;42.656;23.394;2023-07-09T02:38:21;95461.94;;;17.94;63.45
77723;BME280;67811;42.656;23.394;2023-07-09T02:40:46;95458.38;;;18.00;64.67
77723;BME280;67811;42.656;23.394;2023-07-09T02:43:11;95467.16;;;18.07;62.53
77723;BME280;67811;42.656;23.394;2023-07-09T02:45:36;95471.34;;;17.53;63.39
77723;BME280;67811;42.656;23.394;2023-07-09T02:48:02;95466.41;;;17.50;64.22
77723;BME280;67811;42.656;23.394;2023-07-09T02:50:27;95469.44;;;17.03;65.91
77723;BME280;67811;42.656;23.394;2023-07-09T02:52:52;95468.91;;;17.20;66.60
77723;BME280;67811;42.656;23.394;2023-07-09T02:55:18;95479.06;;;17.11;63.62
77723;BME280;67811;42.656;23.394;2023-07-09T02:57:43;95476.59;;;16.58;65.48
77723;BME280;67811;42.656;23.394;2023-07-09T03:00:09;95478.44;;;16.06;68.14
77723;BME280;67811;42.656;23.394;2023-07-09T03:02:34;95488.34;;;15.66;69.43
77723;BME280;67811;42.656;23.394;2023-07-09T03:05:00;95486.47;;;15.40;71.17
77723;BME280;67811;42.656;23.394;2023-07-09T03:07:25;95492.16;;;15.10;72.32
77723;BME280;67811;42.656;23.394;2023-07-09T03:09:51;95490.78;;;15.54;74.31
77723;BME280;67811;42.656;23.394;2023-07-09T03:12:16;95487.84;;;16.15;69.65
77723;BME280;67811;42.656;23.394;2023-07-09T03:14:42;95494.69;;;16.04;68.74
77723;BME280;67811;42.656;23.394;2023-07-09T03:17:07;95497.50;;;16.23;73.02
77723;BME280;67811;42.656;23.394;2023-07-09T03:19:32;95488.53;;;16.62;67.55
77723;BME280;67811;42.656;23.394;2023-07-09T03:21:57;95486.06;;;16.60;65.71
77723;BME280;67811;42.656;23.394;2023-07-09T03:24:23;95484.91;;;16.43;66.37
77723;BME280;67811;42.656;23.394;2023-07-09T03:26:48;95496.59;;;16.55;66.51
77723;BME280;67811;42.656;23.394;2023-07-09T03:29:14;95493.03;;;16.81;69.57
77723;BME280;67811;42.656;23.394;2023-07-09T03:31:39;95490.00;;;16.51;64.90
77723;BME280;67811;42.656;23.394;2023-07-09T03:34:04;95494.03;;;16.22;66.73
77723;BME280;67811;42.656;23.394;2023-07-09T03:36:30;95497.78;;;15.95;68.12
77723;BME280;67811;42.656;23.394;2023-07-09T03:38:55;95489.38;;;15.71;66.99
77723;BME280;67811;42.656;23.394;2023-07-09T03:41:20;95495.09;;;16.01;70.01
77723;BME280;67811;42.656;23.394;2023-07-09T03:43:45;95488.31;;;16.64;69.27
77723;BME280;67811;42.656;23.394;2023-07-09T03:46:11;95495.38;;;16.51;64.77
77723;BME280;67811;42.656;23.394;2023-07-09T03:48:36;95495.78;;;16.55;64.30
77723;BME280;67811;42.656;23.394;2023-07-09T03:51:01;95488.72;;;16.74;63.82
77723;BME280;67811;42.656;23.394;2023-07-09T03:53:27;95493.97;;;16.36;64.47
77723;BME280;67811;42.656;23.394;2023-07-09T03:55:56;95502.88;;;16.10;65.11
77723;BME280;67811;42.656;23.394;2023-07-09T03:58:22;95502.88;;;16.10;65.04
77723;BME280;67811;42.656;23.394;2023-07-09T04:00:47;95497.31;;;16.24;68.51
77723;BME280;67811;42.656;23.394;2023-07-09T04:03:12;95496.34;;;16.70;65.12
77723;BME280;67811;42.656;23.394;2023-07-09T04:05:37;95500.13;;;17.01;63.04
77723;BME280;67811;42.656;23.394;2023-07-09T04:08:04;95508.72;;;17.41;62.58
77723;BME280;67811;42.656;23.394;2023-07-09T04:10:29;95508.09;;;17.96;63.47
77723;BME280;67811;42.656;23.394;2023-07-09T04:12:54;95506.25;;;18.58;63.25
77723;BME280;67811;42.656;23.394;2023-07-09T04:15:19;95502.31;;;19.09;57.60
77723;BME280;67811;42.656;23.394;2023-07-09T04:17:45;95501.31;;;19.52;57.60
77723;BME280;67811;42.656;23.394;2023-07-09T04:20:10;95509.34;;;20.05;57.09
77723;BME280;67811;42.656;23.394;2023-07-09T04:22:37;95511.81;;;20.30;54.74
77723;BME280;67811;42.656;23.394;2023-07-09T04:25:03;95507.34;;;20.59;54.03
77723;BME280;67811;42.656;23.394;2023-07-09T04:27:31;95511.44;;;20.73;52.63
77723;BME280;67811;42.656;23.394;2023-07-09T04:29:56;95513.63;;;20.76;52.29
77723;BME280;67811;42.656;23.394;2023-07-09T04:32:22;95509.47;;;20.97;52.33
77723;BME280;67811;42.656;23.394;2023-07-09T04:34:47;95519.00;;;20.88;52.77
77723;BME280;67811;42.656;23.394;2023-07-09T04:37:13;95524.50;;;21.34;52.79
77723;BME280;67811;42.656;23.394;2023-07-09T04:39:39;95522.63;;;21.34;52.42
77723;BME280;67811;42.656;23.394;2023-07-09T04:42:06;95526.72;;;21.53;53.35
77723;BME280;67811;42.656;23.394;2023-07-09T04:44:35;95530.28;;;21.54;52.39
77723;BME280;67811;42.656;23.394;2023-07-09T04:47:00;95523.38;;;21.46;52.78
77723;BME280;67811;42.656;23.394;2023-07-09T04:49:26;95525.72;;;21.71;53.04
77723;BME280;67811;42.656;23.394;2023-07-09T04:51:51;95516.16;;;21.97;51.97
77723;BME280;67811;42.656;23.394;2023-07-09T04:54:16;95525.00;;;22.09;51.61
77723;BME280;67811;42.656;23.394;2023-07-09T04:56:42;95519.34;;;21.94;51.63
77723;BME280;67811;42.656;23.394;2023-07-09T04:59:07;95519.81;;;21.57;52.54
77723;BME280;67811;42.656;23.394;2023-07-09T05:01:32;95514.25;;;21.64;53.46
77723;BME280;67811;42.656;23.394;2023-07-09T05:03:58;95522.75;;;21.27;52.89
77723;BME280;67811;42.656;23.394;2023-07-09T05:06:23;95526.19;;;21.11;52.60
77723;BME280;67811;42.656;23.394;2023-07-09T05:08:48;95528.63;;;20.84;54.01
77723;BME280;67811;42.656;23.394;2023-07-09T05:11:14;95531.59;;;20.47;54.86
77723;BME280;67811;42.656;23.394;2023-07-09T05:13:40;95531.66;;;20.88;55.30
77723;BME280;67811;42.656;23.394;2023-07-09T05:16:05;95526.50;;;21.15;54.41
77723;BME280;67811;42.656;23.394;2023-07-09T05:18:30;95528.34;;;21.26;54.54
77723;BME280;67811;42.656;23.394;2023-07-09T05:20:56;95533.78;;;21.54;53.58
77723;BME280;67811;42.656;23.394;2023-07-09T05:23:25;95536.13;;;21.22;53.79
77723;BME280;67811;42.656;23.394;2023-07-09T05:25:58;95534.69;;;21.60;54.75
77723;BME280;67811;42.656;23.394;2023-07-09T05:28:23;95535.06;;;22.31;52.62
77723;BME280;67811;42.656;23.394;2023-07-09T05:30:48;95540.91;;;22.61;50.53
77723;BME280;67811;42.656;23.394;2023-07-09T05:33:14;95529.75;;;22.75;50.32
77723;BME280;67811;42.656;23.394;2023-07-09T05:35:39;95522.34;;;22.87;49.58
77723;BME280;67811;42.656;23.394;2023-07-09T05:38:04;95524.25;;;23.08;49.94
77723;BME280;67811;42.656;23.394;2023-07-09T05:40:30;95521.06;;;23.38;48.16
77723;BME280;67811;42.656;23.394;2023-07-09T05:42:56;95521.50;;;23.52;47.98
77723;BME280;67811;42.656;23.394;2023-07-09T05:45:21;95519.56;;;23.75;47.04
77723;BME280;67811;42.656;23.394;2023-07-09T05:47:46;95530.63;;;23.73;46.35
77723;BME280;67811;42.656;23.394;2023-07-09T05:50:12;95524.53;;;23.34;46.67
77723;BME280;67811;42.656;23.394;2023-07-09T05:52:37;95530.22;;;23.10;47.58
77723;BME280;67811;42.656;23.394;2023-07-09T05:55:03;95517.66;;;23.48;47.08
77723;BME280;67811;42.656;23.394;2023-07-09T05:57:28;95522.56;;;23.02;46.57
77723;BME280;67811;42.656;23.394;2023-07-09T05:59:53;95521.38;;;22.93;46.06
77723;BME280;67811;42.656;23.394;2023-07-09T06:02:20;95526.22;;;23.40;45.45
77723;BME280;67811;42.656;23.394;2023-07-09T06:04:46;95511.88;;;23.39;42.90
77723;BME280;67811;42.656;23.394;2023-07-09T06:07:12;95514.72;;;23.28;43.58
77723;BME280;67811;42.656;23.394;2023-07-09T06:09:37;95516.53;;;23.44;44.19
77723;BME280;67811;42.656;23.394;2023-07-09T06:12:03;95512.63;;;23.89;42.56
77723;BME280;67811;42.656;23.394;2023-07-09T06:14:30;95514.94;;;23.48;43.37
77723;BME280;67811;42.656;23.394;2023-07-09T06:16:56;95516.63;;;23.27;43.85
77723;BME280;67811;42.656;23.394;2023-07-09T06:19:21;95516.50;;;23.17;44.42
77723;BME280;67811;42.656;23.394;2023-07-09T06:21:46;95511.03;;;23.12;45.54
77723;BME280;67811;42.656;23.394;2023-07-09T06:24:12;95511.09;;;22.95;44.69
77723;BME280;67811;42.656;23.394;2023-07-09T06:26:38;95517.72;;;23.04;44.75
77723;BME280;67811;42.656;23.394;2023-07-09T06:29:03;95515.31;;;22.86;44.53
77723;BME280;67811;42.656;23.394;2023-07-09T06:31:29;95512.78;;;23.01;44.43
77723;BME280;67811;42.656;23.394;2023-07-09T06:33:54;95509.69;;;23.36;44.61
77723;BME280;67811;42.656;23.394;2023-07-09T06:36:19;95505.28;;;23.84;43.95
77723;BME280;67811;42.656;23.394;2023-07-09T06:38:45;95510.19;;;23.60;44.46
77723;BME280;67811;42.656;23.394;2023-07-09T06:41:11;95506.09;;;23.80;44.29
77723;BME280;67811;42.656;23.394;2023-07-09T06:43:37;95500.34;;;23.49;43.85
77723;BME280;67811;42.656;23.394;2023-07-09T06:46:02;95509.16;;;23.93;43.44
77723;BME280;67811;42.656;23.394;2023-07-09T06:48:28;95510.09;;;24.09;42.78
77723;BME280;67811;42.656;23.394;2023-07-09T06:50:55;95501.25;;;24.19;41.99
77723;BME280;67811;42.656;23.394;2023-07-09T06:53:21;95505.19;;;24.38;40.08
77723;BME280;67811;42.656;23.394;2023-07-09T06:55:48;95504.63;;;24.79;39.85
77723;BME280;67811;42.656;23.394;2023-07-09T06:58:13;95505.97;;;24.81;39.90
77723;BME280;67811;42.656;23.394;2023-07-09T07:00:38;95509.16;;;24.63;40.19
77723;BME280;67811;42.656;23.394;2023-07-09T07:03:05;95503.09;;;25.03;39.37
77723;BME280;67811;42.656;23.394;2023-07-09T07:05:30;95507.69;;;24.50;39.25
77723;BME280;67811;42.656;23.394;2023-07-09T07:07:56;95505.50;;;24.94;39.67
77723;BME280;67811;42.656;23.394;2023-07-09T07:10:22;95497.34;;;24.89;39.46
77723;BME280;67811;42.656;23.394;2023-07-09T07:12:48;95503.75;;;24.68;39.49
77723;BME280;67811;42.656;23.394;2023-07-09T07:15:15;95497.56;;;24.73;40.53
77723;BME280;67811;42.656;23.394;2023-07-09T07:17:41;95500.75;;;25.22;39.67
77723;BME280;67811;42.656;23.394;2023-07-09T07:20:08;95499.47;;;25.50;38.02
77723;BME280;67811;42.656;23.394;2023-07-09T07:22:33;95494.50;;;25.27;37.83
77723;BME280;67811;42.656;23.394;2023-07-09T07:24:59;95503.84;;;25.71;38.35
77723;BME280;67811;42.656;23.394;2023-07-09T07:27:24;95494.09;;;26.16;37.78
77723;BME280;67811;42.656;23.394;2023-07-09T07:29:49;95488.41;;;25.97;37.71
77723;BME280;67811;42.656;23.394;2023-07-09T07:32:14;95485.97;;;26.16;37.22
77723;BME280;67811;42.656;23.394;2023-07-09T07:34:40;95487.28;;;26.29;36.73
77723;BME280;67811;42.656;23.394;2023-07-09T07:37:05;95487.56;;;26.48;35.61
77723;BME280;67811;42.656;23.394;2023-07-09T07:39:30;95491.03;;;26.69;34.85
77723;BME280;67811;42.656;23.394;2023-07-09T07:41:56;95481.34;;;27.22;34.05
77723;BME280;67811;42.656;23.394;2023-07-09T07:44:22;95485.72;;;27.63;33.37
77723;BME280;67811;42.656;23.394;2023-07-09T07:46:47;95476.94;;;27.81;32.70
77723;BME280;67811;42.656;23.394;2023-07-09T07:49:12;95474.41;;;27.45;33.39
77723;BME280;67811;42.656;23.394;2023-07-09T07:51:38;95484.25;;;26.76;33.01
77723;BME280;67811;42.656;23.394;2023-07-09T07:54:04;95469.84;;;27.36;33.55
77723;BME280;67811;42.656;23.394;2023-07-09T07:56:29;95479.31;;;27.43;32.93
77723;BME280;67811;42.656;23.394;2023-07-09T07:58:54;95478.41;;;27.58;33.34
77723;BME280;67811;42.656;23.394;2023-07-09T08:01:20;95478.50;;;27.48;33.12
77723;BME280;67811;42.656;23.394;2023-07-09T08:03:45;95478.53;;;27.38;33.37
77723;BME280;67811;42.656;23.394;2023-07-09T08:06:10;95481.03;;;27.78;32.30
77723;BME280;67811;42.656;23.394;2023-07-09T08:08:36;95482.81;;;27.93;32.48
77723;BME280;67811;42.656;23.394;2023-07-09T08:11:03;95478.75;;;28.54;32.29
77723;BME280;67811;42.656;23.394;2023-07-09T08:13:28;95474.41;;;28.53;31.88
77723;BME280;67811;42.656;23.394;2023-07-09T08:15:54;95464.47;;;28.62;31.77
77723;BME280;67811;42.656;23.394;2023-07-09T08:18:19;95468.75;;;28.44;32.08
77723;BME280;67811;42.656;23.394;2023-07-09T08:20:44;95467.59;;;28.50;31.45
77723;BME280;67811;42.656;23.394;2023-07-09T08:23:10;95465.16;;;28.49;31.33
77723;BME280;67811;42.656;23.394;2023-07-09T08:25:35;95462.50;;;28.68;31.09
77723;BME280;67811;42.656;23.394;2023-07-09T08:28:00;95460.72;;;28.58;31.52
77723;BME280;67811;42.656;23.394;2023-07-09T08:30:26;95453.63;;;28.28;32.74
77723;BME280;67811;42.656;23.394;2023-07-09T08:32:51;95455.75;;;28.84;30.93
77723;BME280;67811;42.656;23.394;2023-07-09T08:35:16;95459.31;;;28.60;31.67
77723;BME280;67811;42.656;23.394;2023-07-09T08:37:41;95453.44;;;28.72;30.85
77723;BME280;67811;42.656;23.394;2023-07-09T08:40:12;95461.75;;;28.04;32.68
77723;BME280;67811;42.656;23.394;2023-07-09T08:42:43;95455.75;;;27.68;32.95
77723;BME280;67811;42.656;23.394;2023-07-09T08:45:19;95462.75;;;27.79;32.85
77723;BME280;67811;42.656;23.394;2023-07-09T08:47:53;95463.16;;;28.59;32.46
77723;BME280;67811;42.656;23.394;2023-07-09T08:50:24;95453.44;;;28.72;32.64
77723;BME280;67811;42.656;23.394;2023-07-09T08:52:55;95465.47;;;28.71;32.29
77723;BME280;67811;42.656;23.394;2023-07-09T08:55:25;95452.53;;;29.06;31.54
77723;BME280;67811;42.656;23.394;2023-07-09T08:57:58;95461.56;;;29.25;31.94
77723;BME280;67811;42.656;23.394;2023-07-09T09:00:34;95457.63;;;28.88;32.11
77723;BME280;67811;42.656;23.394;2023-07-09T09:05:33;95457.63;;;28.41;33.13
77723;BME280;67811;42.656;23.394;2023-07-09T09:08:17;95456.88;;;28.83;32.24
77723;BME280;67811;42.656;23.394;2023-07-09T09:10:51;95454.69;;;28.85;32.13
77723;BME280;67811;42.656;23.394;2023-07-09T09:13:20;95451.28;;;28.98;31.93
77723;BME280;67811;42.656;23.394;2023-07-09T09:15:49;95451.38;;;29.12;31.62
77723;BME280;67811;42.656;23.394;2023-07-09T09:18:23;95454.09;;;28.64;33.03
77723;BME280;67811;42.656;23.394;2023-07-09T09:20:55;95454.63;;;29.14;32.21
77723;BME280;67811;42.656;23.394;2023-07-09T09:23:25;95444.06;;;29.26;32.47
77723;BME280;67811;42.656;23.394;2023-07-09T09:25:56;95451.06;;;28.42;33.70
77723;BME280;67811;42.656;23.394;2023-07-09T09:28:26;95436.25;;;29.38;32.64
77723;BME280;67811;42.656;23.394;2023-07-09T09:30:52;95447.66;;;29.64;31.23
77723;BME280;67811;42.656;23.394;2023-07-09T09:33:17;95440.41;;;29.74;31.00
77723;BME280;67811;42.656;23.394;2023-07-09T09:35:44;95446.38;;;29.95;31.55
77723;BME280;67811;42.656;23.394;2023-07-09T09:38:12;95449.09;;;30.27;30.42
77723;BME280;67811;42.656;23.394;2023-07-09T09:40:38;95440.06;;;30.13;30.83
77723;BME280;67811;42.656;23.394;2023-07-09T09:43:12;95440.38;;;30.11;30.87
77723;BME280;67811;42.656;23.394;2023-07-09T09:45:38;95443.00;;;29.98;30.50
77723;BME280;67811;42.656;23.394;2023-07-09T09:48:31;95442.47;;;29.25;31.69
77723;BME280;67811;42.656;23.394;2023-07-09T09:50:57;95442.16;;;29.27;31.76
77723;BME280;67811;42.656;23.394;2023-07-09T09:53:23;95435.22;;;30.05;30.64
77723;BME280;67811;42.656;23.394;2023-07-09T09:55:52;95439.53;;;29.78;30.52
77723;BME280;67811;42.656;23.394;2023-07-09T09:58:18;95435.19;;;29.58;30.55
77723;BME280;67811;42.656;23.394;2023-07-09T10:00:49;95437.91;;;29.39;30.63
77723;BME280;67811;42.656;23.394;2023-07-09T10:03:14;95428.31;;;29.93;30.62
77723;BME280;67811;42.656;23.394;2023-07-09T10:05:58;95433.03;;;30.07;29.89
77723;BME280;67811;42.656;23.394;2023-07-09T10:11:12;95429.34;;;30.30;29.25
77723;BME280;67811;42.656;23.394;2023-07-09T10:13:43;95425.34;;;30.09;29.93
77723;BME280;67811;42.656;23.394;2023-07-09T10:16:19;95416.56;;;29.60;30.61
77723;BME280;67811;42.656;23.394;2023-07-09T10:21:34;95427.69;;;29.26;30.56
77723;BME280;67811;42.656;23.394;2023-07-09T10:27:17;95420.97;;;30.08;29.35
77723;BME280;67811;42.656;23.394;2023-07-09T10:33:13;95417.28;;;29.28;30.37
77723;BME280;67811;42.656;23.394;2023-07-09T10:35:52;95414.78;;;29.51;28.84
77723;BME280;67811;42.656;23.394;2023-07-09T10:41:10;95416.34;;;29.38;30.48
77723;BME280;67811;42.656;23.394;2023-07-09T10:43:45;95416.91;;;30.05;28.42
77723;BME280;67811;42.656;23.394;2023-07-09T10:46:16;95413.09;;;30.06;28.49
77723;BME280;67811;42.656;23.394;2023-07-09T10:48:46;95413.09;;;30.80;28.08
77723;BME280;67811;42.656;23.394;2023-07-09T10:57:21;95403.94;;;29.46;28.91
77723;BME280;67811;42.656;23.394;2023-07-09T10:59:49;95410.44;;;30.01;27.77
77723;BME280;67811;42.656;23.394;2023-07-09T11:02:20;95410.28;;;29.60;28.47
77723;BME280;67811;42.656;23.394;2023-07-09T11:04:56;95399.59;;;29.07;28.25
77723;BME280;67811;42.656;23.394;2023-07-09T11:09:52;95401.81;;;29.43;27.38
77723;BME280;67811;42.656;23.394;2023-07-09T11:12:28;95397.97;;;29.25;28.01
77723;BME280;67811;42.656;23.394;2023-07-09T11:14:58;95405.34;;;29.24;28.22
77723;BME280;67811;42.656;23.394;2023-07-09T11:17:26;95391.81;;;29.71;27.83
77723;BME280;67811;42.656;23.394;2023-07-09T11:19:58;95405.19;;;29.72;28.23
77723;BME280;67811;42.656;23.394;2023-07-09T11:22:27;95404.09;;;29.54;28.16
77723;BME280;67811;42.656;23.394;2023-07-09T11:24:53;95399.44;;;29.74;27.56
77723;BME280;67811;42.656;23.394;2023-07-09T11:27:29;95393.78;;;29.13;28.69
77723;BME280;67811;42.656;23.394;2023-07-09T11:30:16;95400.41;;;29.45;28.50
77723;BME280;67811;42.656;23.394;2023-07-09T11:32:47;95393.47;;;29.34;27.79
77723;BME280;67811;42.656;23.394;2023-07-09T11:35:20;95386.03;;;29.39;26.94
77723;BME280;67811;42.656;23.394;2023-07-09T11:37:46;95394.56;;;29.33;27.85
77723;BME280;67811;42.656;23.394;2023-07-09T11:40:12;95388.97;;;29.43;28.41
77723;BME280;67811;42.656;23.394;2023-07-09T11:42:55;95387.16;;;29.71;28.26
77723;BME280;67811;42.656;23.394;2023-07-09T11:45:31;95392.38;;;29.86;27.58
77723;BME280;67811;42.656;23.394;2023-07-09T11:50:47;95380.31;;;30.06;27.42
77723;BME280;67811;42.656;23.394;2023-07-09T11:53:51;95379.63;;;30.14;27.83
77723;BME280;67811;42.656;23.394;2023-07-09T11:56:18;95383.53;;;29.62;28.67
77723;BME280;67811;42.656;23.394;2023-07-09T11:58:56;95378.31;;;29.79;28.03
77723;BME280;67811;42.656;23.394;2023-07-09T12:01:43;95379.06;;;29.47;28.98
77723;BME280;67811;42.656;23.394;2023-07-09T12:04:16;95365.06;;;29.35;28.97
77723;BME280;67811;42.656;23.394;2023-07-09T12:06:41;95377.03;;;29.90;29.11
77723;BME280;67811;42.656;23.394;2023-07-09T12:09:16;95379.69;;;29.25;29.24
77723;BME280;67811;42.656;23.394;2023-07-09T12:11:48;95374.03;;;29.73;28.38
77723;BME280;67811;42.656;23.394;2023-07-09T12:14:19;95369.50;;;30.42;27.92
77723;BME280;67811;42.656;23.394;2023-07-09T12:16:47;95370.63;;;30.14;28.04
77723;BME280;67811;42.656;23.394;2023-07-09T12:19:16;95370.75;;;30.04;28.60
77723;BME280;67811;42.656;23.394;2023-07-09T12:21:43;95372.28;;;29.96;28.79
77723;BME280;67811;42.656;23.394;2023-07-09T12:26:43;95368.31;;;30.35;27.65
77723;BME280;67811;42.656;23.394;2023-07-09T12:29:09;95374.19;;;30.28;27.92
77723;BME280;67811;42.656;23.394;2023-07-09T12:31:35;95366.16;;;30.18;27.97
77723;BME280;67811;42.656;23.394;2023-07-09T12:34:00;95361.97;;;30.07;28.41
77723;BME280;67811;42.656;23.394;2023-07-09T12:36:26;95356.47;;;29.79;29.39
77723;BME280;67811;42.656;23.394;2023-07-09T12:38:56;95348.81;;;30.09;28.94
77723;BME280;67811;42.656;23.394;2023-07-09T12:43:49;95340.72;;;29.57;28.98
77723;BME280;67811;42.656;23.394;2023-07-09T12:46:16;95345.56;;;29.60;30.07
77723;BME280;67811;42.656;23.394;2023-07-09T12:48:43;95350.53;;;29.58;30.27
77723;BME280;67811;42.656;23.394;2023-07-09T12:51:08;95341.50;;;29.90;28.93
77723;BME280;67811;42.656;23.394;2023-07-09T12:53:36;95344.09;;;30.14;28.71
77723;BME280;67811;42.656;23.394;2023-07-09T12:56:02;95345.19;;;29.48;29.61
77723;BME280;67811;42.656;23.394;2023-07-09T12:58:32;95341.53;;;29.58;29.42
77723;BME280;67811;42.656;23.394;2023-07-09T13:01:00;95341.19;;;29.78;29.12
77723;BME280;67811;42.656;23.394;2023-07-09T13:03:31;95336.63;;;29.74;29.23
77723;BME280;67811;42.656;23.394;2023-07-09T13:05:59;95334.31;;;29.29;29.97
77723;BME280;67811;42.656;23.394;2023-07-09T13:08:27;95336.31;;;29.24;30.05
77723;BME280;67811;42.656;23.394;2023-07-09T13:10:53;95339.63;;;29.39;30.47
77723;BME280;67811;42.656;23.394;2023-07-09T13:13:20;95341.34;;;29.68;29.18
77723;BME280;67811;42.656;23.394;2023-07-09T13:15:56;95342.91;;;29.55;30.37
77723;BME280;67811;42.656;23.394;2023-07-09T13:18:23;95329.22;;;29.23;29.98
77723;BME280;67811;42.656;23.394;2023-07-09T13:20:49;95338.38;;;29.13;30.62
77723;BME280;67811;42.656;23.394;2023-07-09T13:23:20;95345.56;;;28.42;30.87
77723;BME280;67811;42.656;23.394;2023-07-09T13:25:46;95339.56;;;28.64;30.96
77723;BME280;67811;42.656;23.394;2023-07-09T13:28:29;95347.97;;;28.68;31.22
77723;BME280;67811;42.656;23.394;2023-07-09T13:31:00;95342.38;;;28.59;31.29